createdAt,value
2023-02-02T00:01:55.621Z,2.40
2023-02-02T00:07:38.314Z,2.40
2023-02-02T00:10:30.580Z,1.60
2023-02-02T00:13:22.857Z,2.80
2023-02-02T00:16:41.818Z,1.40
2023-02-02T00:19:34.491Z,1.60
2023-02-02T00:22:26.636Z,2.80
2023-02-02T00:25:19.225Z,2.00
2023-02-02T00:28:11.406Z,2.20
2023-02-02T00:31:03.662Z,4.20
2023-02-02T00:33:55.955Z,3.80
2023-02-02T00:36:48.582Z,3.40
2023-02-02T00:39:40.895Z,3.50
2023-02-02T00:42:33.027Z,4.40
2023-02-02T00:45:26.096Z,3.60
2023-02-02T00:48:18.593Z,3.20
2023-02-02T00:51:10.809Z,5.00
2023-02-02T00:54:03.296Z,4.90
2023-02-02T00:56:55.748Z,4.70
2023-02-02T00:59:48.175Z,3.60
2023-02-02T01:02:40.370Z,3.50
2023-02-02T01:05:32.620Z,3.10
2023-02-02T01:08:24.876Z,3.20
2023-02-02T01:11:16.962Z,3.60
2023-02-02T01:14:09.241Z,3.90
2023-02-02T01:17:01.564Z,4.30
2023-02-02T01:19:54.651Z,5.30
2023-02-02T01:22:47.319Z,4.70
2023-02-02T01:25:39.556Z,4.00
2023-02-02T01:28:32.247Z,4.40
2023-02-02T01:31:24.765Z,4.60
2023-02-02T01:34:16.912Z,5.20
2023-02-02T01:37:04.919Z,3.60
2023-02-02T01:39:57.202Z,3.60
2023-02-02T01:42:49.471Z,4.80
2023-02-02T01:45:41.728Z,3.40
2023-02-02T01:48:36.843Z,4.70
2023-02-02T01:51:34.133Z,4.90
2023-02-02T01:54:31.625Z,3.80
2023-02-02T01:57:29.696Z,4.30
2023-02-02T02:00:25.517Z,3.40
2023-02-02T02:03:20.106Z,4.50
2023-02-02T02:06:15.057Z,4.80
2023-02-02T02:09:09.184Z,6.70
2023-02-02T02:12:01.527Z,7.30
2023-02-02T02:15:11.933Z,4.80
2023-02-02T02:18:13.855Z,7.20
2023-02-02T02:21:43.883Z,8.00
2023-02-02T02:25:31.959Z,9.40
2023-02-02T02:28:49.951Z,8.50
2023-02-02T02:32:03.626Z,11.00
2023-02-02T02:35:03.549Z,8.30
2023-02-02T02:38:00.498Z,10.10
2023-02-02T02:40:56.241Z,6.70
2023-02-02T02:43:52.642Z,6.00
2023-02-02T02:46:45.874Z,8.10
2023-02-02T02:49:44.879Z,4.90
2023-02-02T02:52:38.233Z,6.30
2023-02-02T02:55:40.633Z,9.60
2023-02-02T02:58:44.627Z,7.00
2023-02-02T03:01:50.071Z,9.20
2023-02-02T03:04:47.622Z,9.60
2023-02-02T03:07:43.791Z,5.90
2023-02-02T03:10:39.480Z,9.90
2023-02-02T03:13:32.680Z,12.00
2023-02-02T03:16:24.836Z,5.10
2023-02-02T03:19:16.937Z,8.40
2023-02-02T03:22:08.111Z,8.70
2023-02-02T03:25:00.182Z,6.50
2023-02-02T03:27:52.940Z,7.80
2023-02-02T03:30:47.084Z,4.70
2023-02-02T03:36:30.571Z,5.10
2023-02-02T03:39:22.793Z,5.30
2023-02-02T03:42:15.058Z,6.50
2023-02-02T03:45:08.158Z,7.00
2023-02-02T03:48:00.337Z,7.90
2023-02-02T03:50:52.372Z,5.40
2023-02-02T03:53:47.389Z,4.00
2023-02-02T03:56:39.553Z,5.30
2023-02-02T03:59:31.690Z,6.30
2023-02-02T04:02:23.801Z,7.90
2023-02-02T04:05:15.999Z,3.40
2023-02-02T04:08:08.198Z,3.30
2023-02-02T04:11:00.667Z,5.70
2023-02-02T04:13:52.781Z,4.70
2023-02-02T04:16:45.059Z,7.70
2023-02-02T04:19:37.169Z,4.20
2023-02-02T04:22:29.737Z,4.70
2023-02-02T04:25:22.014Z,7.50
2023-02-02T04:28:14.273Z,6.00
2023-02-02T04:31:06.668Z,5.00
2023-02-02T04:33:59.576Z,5.80
2023-02-02T04:36:51.689Z,4.10
2023-02-02T04:39:43.839Z,5.20
2023-02-02T04:42:35.987Z,6.10
2023-02-02T04:45:28.342Z,7.00
2023-02-02T04:48:20.668Z,8.30
2023-02-02T04:51:15.158Z,10.50
2023-02-02T04:54:08.242Z,7.50
2023-02-02T04:57:02.815Z,6.00
2023-02-02T04:59:54.910Z,5.80
2023-02-02T05:02:47.131Z,8.00
2023-02-02T05:05:39.233Z,5.40
2023-02-02T05:08:31.635Z,9.10
2023-02-02T05:11:24.949Z,3.90
2023-02-02T05:14:18.494Z,5.50
2023-02-02T05:17:10.713Z,9.20
2023-02-02T05:20:02.898Z,10.00
2023-02-02T05:22:54.975Z,9.00
2023-02-02T05:25:52.363Z,7.20
2023-02-02T05:28:44.514Z,8.90
2023-02-02T05:31:22.188Z,7.10
2023-02-02T05:34:14.415Z,8.60
2023-02-02T05:37:06.632Z,6.20
2023-02-02T05:39:58.782Z,10.20
2023-02-02T05:42:51.654Z,9.10
2023-02-02T05:45:44.014Z,4.50
2023-02-02T05:48:36.362Z,5.00
2023-02-02T05:51:32.941Z,4.00
2023-02-02T05:54:25.236Z,5.80
2023-02-02T05:57:08.155Z,3.10
2023-02-02T06:00:00.367Z,5.30
2023-02-02T06:02:52.644Z,4.90
2023-02-02T06:05:44.863Z,8.70
2023-02-02T06:08:37.516Z,7.40
2023-02-02T06:11:29.613Z,5.90
2023-02-02T06:14:21.707Z,7.90
2023-02-02T06:17:13.809Z,5.10
2023-02-02T06:20:06.906Z,6.10
2023-02-02T06:22:59.175Z,6.40
2023-02-02T06:25:51.260Z,5.80
2023-02-02T06:28:43.836Z,6.60
2023-02-02T06:31:36.139Z,6.60
2023-02-02T06:34:28.388Z,3.10
2023-02-02T06:37:20.539Z,5.00
2023-02-02T06:40:14.392Z,3.90
2023-02-02T06:43:06.728Z,4.00
2023-02-02T06:45:40.272Z,6.50
2023-02-02T06:48:32.442Z,8.00
2023-02-02T06:51:25.223Z,4.70
2023-02-02T06:54:17.397Z,6.40
2023-02-02T06:57:10.358Z,8.80
2023-02-02T07:00:02.590Z,8.20
2023-02-02T07:02:54.827Z,7.20
2023-02-02T07:05:47.244Z,5.90
2023-02-02T07:08:39.375Z,6.10
2023-02-02T07:11:32.983Z,11.20
2023-02-02T07:14:27.017Z,6.30
2023-02-02T07:17:19.906Z,7.20
2023-02-02T07:20:13.474Z,5.90
2023-02-02T07:23:06.301Z,6.60
2023-02-02T07:26:06.541Z,6.10
2023-02-02T07:28:58.713Z,5.50
2023-02-02T07:31:51.105Z,7.20
2023-02-02T07:34:44.184Z,8.20
2023-02-02T07:37:19.039Z,9.30
2023-02-02T07:40:13.388Z,6.10
2023-02-02T07:43:05.707Z,8.30
2023-02-02T07:46:02.111Z,5.70
2023-02-02T07:48:56.393Z,7.00
2023-02-02T07:54:33.241Z,9.70
2023-02-02T07:57:25.429Z,6.80
2023-02-02T08:00:18.979Z,6.90
2023-02-02T08:03:13.638Z,6.10
2023-02-02T08:06:12.898Z,6.90
2023-02-02T08:09:09.699Z,6.20
2023-02-02T08:12:02.390Z,6.70
2023-02-02T08:14:54.653Z,8.70
2023-02-02T08:17:50.022Z,8.30
2023-02-02T08:20:42.187Z,12.50
2023-02-02T08:23:34.407Z,11.60
2023-02-02T08:26:28.513Z,11.70
2023-02-02T08:32:11.359Z,10.60
2023-02-02T08:35:03.501Z,11.90
2023-02-02T08:37:55.578Z,12.40
2023-02-02T08:40:47.996Z,11.00
2023-02-02T08:43:40.496Z,8.10
2023-02-02T08:46:33.015Z,9.80
2023-02-02T08:49:25.912Z,6.80
2023-02-02T08:52:18.019Z,7.30
2023-02-02T08:55:10.803Z,7.00
2023-02-02T08:58:03.203Z,6.80
2023-02-02T09:00:55.471Z,7.40
2023-02-02T09:03:47.933Z,7.70
2023-02-02T09:06:41.935Z,8.00
2023-02-02T09:09:34.111Z,5.60
2023-02-02T09:12:26.276Z,8.30
2023-02-02T09:15:18.546Z,9.50
2023-02-02T09:18:10.619Z,5.20
2023-02-02T09:21:04.932Z,6.90
2023-02-02T09:23:57.199Z,9.40
2023-02-02T09:26:49.473Z,6.80
2023-02-02T09:29:41.631Z,6.40
2023-02-02T09:32:34.093Z,8.70
2023-02-02T09:35:26.664Z,8.80
2023-02-02T09:38:19.008Z,7.40
2023-02-02T09:41:41.788Z,7.10
2023-02-02T09:44:49.976Z,6.40
2023-02-02T09:47:58.524Z,6.70
2023-02-02T09:50:54.523Z,6.40
2023-02-02T09:53:55.750Z,5.20
2023-02-02T09:56:54.615Z,4.20
2023-02-02T09:59:49.703Z,7.10
2023-02-02T10:02:46.175Z,6.50
2023-02-02T10:05:50.250Z,6.50
2023-02-02T10:08:49.771Z,10.00
2023-02-02T10:11:50.121Z,7.40
2023-02-02T10:14:48.421Z,8.20
2023-02-02T10:17:46.647Z,4.60
2023-02-02T10:20:45.508Z,6.90
2023-02-02T10:23:40.256Z,6.30
2023-02-02T10:26:39.945Z,4.20
2023-02-02T10:29:48.459Z,5.00
2023-02-02T10:32:27.124Z,2.40
2023-02-02T10:35:37.089Z,5.30
2023-02-02T10:38:39.874Z,4.90
2023-02-02T10:41:42.541Z,5.30
2023-02-02T10:44:44.506Z,7.90
2023-02-02T10:47:38.678Z,5.20
2023-02-02T10:53:25.895Z,4.50
2023-02-02T10:56:22.205Z,2.80
2023-02-02T10:59:20.533Z,6.50
2023-02-02T11:01:52.608Z,2.80
2023-02-02T11:04:52.441Z,3.50
2023-02-02T11:07:44.716Z,2.80
2023-02-02T11:10:36.829Z,2.50
2023-02-02T11:13:32.513Z,3.20
2023-02-02T11:16:38.720Z,3.40
2023-02-02T11:19:36.483Z,5.20
2023-02-02T11:22:35.400Z,7.70
2023-02-02T11:25:32.256Z,8.30
2023-02-02T11:28:30.285Z,8.40
2023-02-02T11:31:39.751Z,4.00
2023-02-02T11:34:32.150Z,3.30
2023-02-02T11:37:16.933Z,3.10
2023-02-02T11:40:28.590Z,4.20
2023-02-02T11:43:29.203Z,4.80
2023-02-02T11:46:24.719Z,3.60
2023-02-02T11:49:19.980Z,5.20
2023-02-02T11:52:21.879Z,4.10
2023-02-02T11:55:23.302Z,4.60
2023-02-02T11:58:28.384Z,3.20
2023-02-02T12:01:28.653Z,4.10
2023-02-02T12:04:27.756Z,3.80
2023-02-02T12:07:24.934Z,3.10
2023-02-02T12:10:27.573Z,2.50
2023-02-02T12:13:30.659Z,3.40
2023-02-02T12:16:42.818Z,3.90
2023-02-02T12:20:05.901Z,5.00
2023-02-02T12:23:01.189Z,5.00
2023-02-02T12:26:06.504Z,3.00
2023-02-02T12:28:49.990Z,4.30
2023-02-02T12:32:06.038Z,5.30
2023-02-02T12:35:21.602Z,4.00
2023-02-02T12:38:23.095Z,3.80
2023-02-02T12:41:31.611Z,3.20
2023-02-02T12:44:15.245Z,14.70
2023-02-02T12:47:19.594Z,18.30
2023-02-02T12:50:31.219Z,2.30
2023-02-02T12:53:25.370Z,2.00
2023-02-02T12:56:28.278Z,3.80
2023-02-02T12:59:48.437Z,3.10
2023-02-02T13:02:48.902Z,4.80
2023-02-02T13:05:56.890Z,5.50
2023-02-02T13:08:54.014Z,5.10
2023-02-02T13:11:42.756Z,4.90
2023-02-02T13:14:41.752Z,4.70
2023-02-02T13:17:40.176Z,5.70
2023-02-02T13:20:41.391Z,5.70
2023-02-02T13:23:38.104Z,4.40
2023-02-02T13:26:35.311Z,3.30
2023-02-02T13:29:34.408Z,5.40
2023-02-02T13:32:42.780Z,4.80
2023-02-02T13:35:45.299Z,4.90
2023-02-02T13:38:42.072Z,7.20
2023-02-02T13:41:34.600Z,3.60
2023-02-02T13:44:33.243Z,5.00
2023-02-02T13:47:33.363Z,8.40
2023-02-02T13:50:12.454Z,20.30
2023-02-02T13:53:27.229Z,16.20
2023-02-02T13:59:36.027Z,17.50
2023-02-02T14:02:34.494Z,25.20
2023-02-02T14:05:29.385Z,10.20
2023-02-02T14:08:23.085Z,16.30
2023-02-02T14:11:22.683Z,6.20
2023-02-02T14:14:35.735Z,8.00
2023-02-02T14:17:53.579Z,53.40
2023-02-02T14:20:50.323Z,10.80
2023-02-02T14:23:56.412Z,12.80
2023-02-02T14:26:50.426Z,18.80
2023-02-02T14:30:01.335Z,24.10
2023-02-02T14:32:53.461Z,23.40
2023-02-02T14:36:04.215Z,28.20
2023-02-02T14:39:19.862Z,15.00
2023-02-02T14:42:36.395Z,97.80
2023-02-02T14:45:33.396Z,94.00
2023-02-02T14:48:26.731Z,103.00
2023-02-02T14:51:22.277Z,56.00
2023-02-02T14:54:26.366Z,45.90
2023-02-02T14:57:28.901Z,156.90
2023-02-02T15:00:27.159Z,71.90
2023-02-02T15:03:49.061Z,53.40
2023-02-02T15:06:43.237Z,19.50
2023-02-02T15:12:39.418Z,10.90
2023-02-02T15:15:37.042Z,10.60
2023-02-02T15:18:34.306Z,18.40
2023-02-02T15:21:27.755Z,13.30
2023-02-02T15:24:25.767Z,13.00
2023-02-02T15:27:21.939Z,10.10
2023-02-02T15:30:17.937Z,19.70
2023-02-02T15:33:28.591Z,11.00
2023-02-02T15:36:24.671Z,13.10
2023-02-02T15:39:31.139Z,11.70
2023-02-02T15:42:49.175Z,13.40
2023-02-02T15:45:46.069Z,10.30
2023-02-02T15:48:38.283Z,10.00
2023-02-02T15:51:31.410Z,6.00
2023-02-02T15:54:29.096Z,8.50
2023-02-02T15:57:38.278Z,8.50
2023-02-02T16:00:33.820Z,7.50
2023-02-02T16:03:31.800Z,5.40
2023-02-02T16:06:24.244Z,5.50
2023-02-02T16:09:25.055Z,7.00
2023-02-02T16:12:19.859Z,8.80
2023-02-02T16:15:22.171Z,17.60
2023-02-02T16:18:16.482Z,17.20
2023-02-02T16:21:25.877Z,19.30
2023-02-02T16:24:01.550Z,20.00
2023-02-02T16:26:55.841Z,11.10
2023-02-02T16:29:48.231Z,12.10
2023-02-02T16:32:42.154Z,11.60
2023-02-02T16:35:36.428Z,7.90
2023-02-02T16:41:32.711Z,6.30
2023-02-02T16:44:40.584Z,6.00
2023-02-02T16:47:39.083Z,4.50
2023-02-02T16:50:34.573Z,5.40
2023-02-02T16:53:29.305Z,5.10
2023-02-02T16:56:27.970Z,4.60
2023-02-02T16:59:24.484Z,5.80
2023-02-02T17:02:25.832Z,7.40
2023-02-02T17:05:25.704Z,6.60
2023-02-02T17:08:29.446Z,8.60
2023-02-02T17:11:26.269Z,9.60
2023-02-02T17:14:31.866Z,9.20
2023-02-02T17:17:24.337Z,10.10
2023-02-02T17:19:59.283Z,8.40
2023-02-02T17:22:56.213Z,11.80
2023-02-02T17:25:49.007Z,8.80
2023-02-02T17:28:42.859Z,7.70
2023-02-02T17:31:25.489Z,6.00
2023-02-02T17:34:19.577Z,6.00
2023-02-02T17:37:13.035Z,6.60
2023-02-02T17:40:05.882Z,5.80
2023-02-02T17:42:58.196Z,6.80
2023-02-02T17:45:50.629Z,6.90
2023-02-02T17:48:43.341Z,5.50
2023-02-02T17:51:49.100Z,8.50
2023-02-02T17:54:41.434Z,6.70
2023-02-02T17:57:33.602Z,7.40
2023-02-02T18:00:31.027Z,6.80
2023-02-02T18:03:25.734Z,9.70
2023-02-02T18:06:18.049Z,7.60
2023-02-02T18:09:11.230Z,6.50
2023-02-02T18:12:03.300Z,7.80
2023-02-02T18:14:55.418Z,9.90
2023-02-02T18:17:47.926Z,10.10
2023-02-02T18:20:41.502Z,10.90
2023-02-02T18:23:33.875Z,11.30
2023-02-02T18:26:27.249Z,9.20
2023-02-02T18:29:19.333Z,11.10
2023-02-02T18:32:11.469Z,8.00
2023-02-02T18:35:03.743Z,10.00
2023-02-02T18:37:55.897Z,10.30
2023-02-02T18:41:02.213Z,12.80
2023-02-02T18:43:56.560Z,11.00
2023-02-02T18:46:49.007Z,8.90
2023-02-02T18:49:41.489Z,8.30
2023-02-02T18:52:36.111Z,8.90
2023-02-02T18:55:29.103Z,11.60
2023-02-02T18:58:21.303Z,6.10
2023-02-02T19:01:16.570Z,7.50
2023-02-02T19:04:08.906Z,5.90
2023-02-02T19:07:18.742Z,7.90
2023-02-02T19:10:13.312Z,8.00
2023-02-02T19:13:15.904Z,10.30
2023-02-02T19:16:18.523Z,12.00
2023-02-02T19:19:22.070Z,12.50
2023-02-02T19:22:11.101Z,11.20
2023-02-02T19:25:14.552Z,10.20
2023-02-02T19:28:22.541Z,10.30
2023-02-02T19:31:16.548Z,12.80
2023-02-02T19:33:58.975Z,7.30
2023-02-02T19:36:52.268Z,6.80
2023-02-02T19:39:47.047Z,10.80
2023-02-02T19:42:42.251Z,9.50
2023-02-02T19:45:28.176Z,6.20
2023-02-02T19:48:23.724Z,5.20
2023-02-02T19:51:39.130Z,5.70
2023-02-02T19:54:34.171Z,5.50
2023-02-02T19:57:34.079Z,6.00
2023-02-02T20:00:29.427Z,5.70
2023-02-02T20:03:24.250Z,7.10
2023-02-02T20:06:23.860Z,6.00
2023-02-02T20:09:19.203Z,6.90
2023-02-02T20:12:23.343Z,8.40
2023-02-02T20:15:29.140Z,9.40
2023-02-02T20:21:19.531Z,9.00
2023-02-02T20:24:18.383Z,11.90
2023-02-02T20:30:18.181Z,7.90
2023-02-02T20:33:22.109Z,6.00
2023-02-02T20:36:28.648Z,6.60
2023-02-02T20:39:29.890Z,7.80
2023-02-02T20:42:22.099Z,7.30
2023-02-02T20:45:14.423Z,10.00
2023-02-02T20:48:07.002Z,10.30
2023-02-02T20:50:59.132Z,8.60
2023-02-02T20:53:55.622Z,11.30
2023-02-02T20:56:47.989Z,12.10
2023-02-02T20:59:40.217Z,10.10
2023-02-02T21:02:32.578Z,7.50
2023-02-02T21:05:25.241Z,9.10
2023-02-02T21:08:17.396Z,6.90
2023-02-02T21:11:09.823Z,8.40
2023-02-02T21:14:02.478Z,8.20
2023-02-02T21:17:08.867Z,12.10
2023-02-02T21:20:06.530Z,8.80
2023-02-02T21:22:49.387Z,12.00
2023-02-02T21:25:41.943Z,8.60
2023-02-02T21:28:34.181Z,10.00
2023-02-02T21:31:26.561Z,9.10
2023-02-02T21:34:20.824Z,9.60
2023-02-02T21:40:13.961Z,11.60
2023-02-02T21:43:16.363Z,11.00
2023-02-02T21:46:18.890Z,11.30
2023-02-02T21:49:25.267Z,11.10
2023-02-02T21:52:19.534Z,11.80
2023-02-02T21:55:33.424Z,9.30
2023-02-02T21:58:29.615Z,9.30
2023-02-02T22:01:27.355Z,7.90
2023-02-02T22:04:25.124Z,9.00
2023-02-02T22:07:17.813Z,8.10
2023-02-02T22:10:26.684Z,8.40
2023-02-02T22:13:21.430Z,6.20
2023-02-02T22:16:18.940Z,11.80
2023-02-02T22:19:25.720Z,8.60
2023-02-02T22:22:19.906Z,10.50
2023-02-02T22:28:23.414Z,11.90
2023-02-02T22:31:15.667Z,14.10
2023-02-02T22:34:07.840Z,11.30
2023-02-02T22:36:59.897Z,14.40
2023-02-02T22:39:52.096Z,13.60
2023-02-02T22:42:24.082Z,13.20
2023-02-02T22:45:16.488Z,11.70
2023-02-02T22:48:08.941Z,14.80
2023-02-02T22:51:01.167Z,11.30
2023-02-02T22:53:53.333Z,12.10
2023-02-02T22:56:45.530Z,12.80
2023-02-02T22:59:37.734Z,8.70
2023-02-02T23:02:29.944Z,10.20
2023-02-02T23:05:23.590Z,10.70
2023-02-02T23:08:15.761Z,10.80
2023-02-02T23:11:07.976Z,9.10
2023-02-02T23:14:00.070Z,8.20
2023-02-02T23:16:52.235Z,9.70
2023-02-02T23:19:24.157Z,8.90
2023-02-02T23:22:16.382Z,6.60
2023-02-02T23:25:09.285Z,6.80
2023-02-02T23:28:01.451Z,5.90
2023-02-02T23:30:54.630Z,7.60
2023-02-02T23:33:46.913Z,9.00
2023-02-02T23:36:39.061Z,13.60
2023-02-02T23:39:31.184Z,13.60
2023-02-02T23:42:23.387Z,13.50
2023-02-02T23:45:16.506Z,16.10
2023-02-02T23:48:10.021Z,14.60
2023-02-02T23:51:02.429Z,13.20
2023-02-02T23:53:55.616Z,11.00
2023-02-02T23:56:47.816Z,12.30
2023-02-02T23:59:40.024Z,14.10
